createdAt,value
2023-10-06T00:00:11.379Z,88.98
2023-10-06T00:01:11.401Z,88.68
2023-10-06T00:02:11.413Z,88.78
2023-10-06T00:03:11.394Z,88.78
2023-10-06T00:04:11.335Z,88.78
2023-10-06T00:05:11.320Z,88.17
2023-10-06T00:06:11.297Z,87.85
2023-10-06T00:07:11.279Z,87.55
2023-10-06T00:08:11.294Z,87.76
2023-10-06T00:09:11.261Z,87.96
2023-10-06T00:10:11.252Z,88.06
2023-10-06T00:11:11.215Z,88.17
2023-10-06T00:12:11.203Z,88.47
2023-10-06T00:13:11.186Z,88.68
2023-10-06T00:14:11.285Z,88.57
2023-10-06T00:15:11.160Z,88.68
2023-10-06T00:16:11.156Z,88.68
2023-10-06T00:17:11.161Z,88.37
2023-10-06T00:18:11.194Z,88.17
2023-10-06T00:19:11.105Z,88.26
2023-10-06T00:20:11.171Z,88.17
2023-10-06T00:21:11.075Z,89.18
2023-10-06T00:22:11.069Z,89.39
2023-10-06T00:23:11.058Z,89.43
2023-10-06T00:24:11.034Z,89.43
2023-10-06T00:25:11.021Z,89.64
2023-10-06T00:26:11.047Z,89.43
2023-10-06T00:27:11.011Z,89.33
2023-10-06T00:28:10.981Z,89.33
2023-10-06T00:29:11.195Z,89.33
2023-10-06T00:30:10.970Z,89.43
2023-10-06T00:31:10.997Z,89.43
2023-10-06T00:32:10.986Z,89.23
2023-10-06T00:33:10.938Z,89.23
2023-10-06T00:34:10.903Z,89.98
2023-10-06T00:35:10.904Z,89.78
2023-10-06T00:36:10.865Z,90.30
2023-10-06T00:37:10.854Z,90.34
2023-10-06T00:38:10.905Z,90.95
2023-10-06T00:39:10.848Z,91.16
2023-10-06T00:40:10.840Z,91.05
2023-10-06T00:41:10.820Z,90.95
2023-10-06T00:42:10.804Z,91.16
2023-10-06T00:43:10.790Z,90.95
2023-10-06T00:44:10.849Z,91.05
2023-10-06T00:45:10.775Z,90.75
2023-10-06T00:46:10.739Z,90.34
2023-10-06T00:47:10.823Z,90.13
2023-10-06T00:48:10.745Z,89.83
2023-10-06T00:49:10.840Z,89.51
2023-10-06T00:50:10.776Z,89.31
2023-10-06T00:51:10.663Z,89.21
2023-10-06T00:52:10.675Z,89.21
2023-10-06T00:53:10.654Z,88.90
2023-10-06T00:54:10.637Z,88.59
2023-10-06T00:55:10.653Z,88.59
2023-10-06T00:56:10.717Z,88.59
2023-10-06T00:57:10.620Z,88.70
2023-10-06T00:58:10.572Z,88.49
2023-10-06T00:59:10.738Z,88.39
2023-10-06T01:00:10.600Z,88.29
2023-10-06T01:01:10.588Z,88.49
2023-10-06T01:02:10.648Z,88.80
2023-10-06T01:03:10.665Z,88.59
2023-10-06T01:04:10.481Z,88.59
2023-10-06T01:05:10.477Z,88.70
2023-10-06T01:06:10.452Z,88.59
2023-10-06T01:07:10.481Z,88.59
2023-10-06T01:08:10.545Z,88.70
2023-10-06T01:09:10.765Z,88.80
2023-10-06T01:10:10.441Z,88.70
2023-10-06T01:11:10.400Z,88.70
2023-10-06T01:12:10.557Z,89.36
2023-10-06T01:13:10.372Z,89.45
2023-10-06T01:14:10.368Z,89.15
2023-10-06T01:15:10.344Z,89.04
2023-10-06T01:16:10.405Z,89.25
2023-10-06T01:17:10.378Z,89.04
2023-10-06T01:18:10.328Z,88.84
2023-10-06T01:19:10.310Z,88.53
2023-10-06T01:20:10.297Z,88.43
2023-10-06T01:21:10.267Z,88.84
2023-10-06T01:22:10.287Z,89.50
2023-10-06T01:23:10.255Z,89.90
2023-10-06T01:24:10.223Z,89.60
2023-10-06T01:25:10.206Z,89.50
2023-10-06T01:26:10.207Z,89.50
2023-10-06T01:27:10.252Z,89.50
2023-10-06T01:28:10.168Z,90.32
2023-10-06T01:29:10.408Z,90.83
2023-10-06T01:30:10.137Z,91.18
2023-10-06T01:31:10.174Z,92.00
2023-10-06T01:32:10.227Z,91.28
2023-10-06T01:33:10.095Z,90.87
2023-10-06T01:34:10.094Z,90.56
2023-10-06T01:35:10.128Z,90.56
2023-10-06T01:36:10.059Z,90.56
2023-10-06T01:37:10.088Z,90.36
2023-10-06T01:38:10.070Z,90.36
2023-10-06T01:39:10.254Z,90.16
2023-10-06T01:40:10.024Z,90.16
2023-10-06T01:41:10.024Z,90.26
2023-10-06T01:42:10.005Z,90.26
2023-10-06T01:43:09.987Z,90.05
2023-10-06T01:44:09.962Z,89.75
2023-10-06T01:45:09.929Z,89.43
2023-10-06T01:46:09.976Z,89.43
2023-10-06T01:47:09.949Z,89.23
2023-10-06T01:48:09.940Z,89.13
2023-10-06T01:49:10.386Z,88.92
2023-10-06T01:50:10.043Z,89.03
2023-10-06T01:51:09.863Z,89.03
2023-10-06T01:52:10.462Z,88.92
2023-10-06T01:53:09.913Z,89.54
2023-10-06T01:54:09.841Z,89.43
2023-10-06T01:55:09.796Z,89.23
2023-10-06T01:56:09.834Z,88.92
2023-10-06T01:57:09.767Z,90.05
2023-10-06T01:58:09.765Z,89.84
2023-10-06T01:59:09.941Z,89.54
2023-10-06T02:00:09.777Z,89.33
2023-10-06T02:01:09.734Z,89.84
2023-10-06T02:02:09.836Z,91.74
2023-10-06T02:03:09.823Z,92.46
2023-10-06T02:04:09.685Z,92.25
2023-10-06T02:05:09.773Z,91.53
2023-10-06T02:06:09.655Z,91.53
2023-10-06T02:07:09.657Z,92.04
2023-10-06T02:08:09.673Z,91.74
2023-10-06T02:09:09.774Z,91.22
2023-10-06T02:10:09.614Z,90.91
2023-10-06T02:11:09.624Z,90.71
2023-10-06T02:12:09.609Z,90.91
2023-10-06T02:13:09.563Z,90.91
2023-10-06T02:14:09.606Z,90.71
2023-10-06T02:15:09.533Z,90.91
2023-10-06T02:16:09.566Z,90.71
2023-10-06T02:17:09.631Z,90.61
2023-10-06T02:18:09.523Z,90.55
2023-10-06T02:19:09.594Z,90.75
2023-10-06T02:20:09.534Z,90.75
2023-10-06T02:21:09.494Z,90.55
2023-10-06T02:22:09.430Z,90.44
2023-10-06T02:23:09.449Z,90.14
2023-10-06T02:24:09.425Z,89.93
2023-10-06T02:25:09.410Z,90.03
2023-10-06T02:26:09.437Z,90.14
2023-10-06T02:27:09.404Z,90.03
2023-10-06T02:28:09.352Z,89.83
2023-10-06T02:29:09.554Z,89.72
2023-10-06T02:30:09.334Z,89.83
2023-10-06T02:31:09.327Z,90.03
2023-10-06T02:32:09.642Z,90.03
2023-10-06T02:33:09.298Z,91.00
2023-10-06T02:34:09.290Z,91.20
2023-10-06T02:35:09.418Z,90.80
2023-10-06T02:36:09.261Z,90.80
2023-10-06T02:37:09.353Z,91.61
2023-10-06T02:38:09.322Z,93.26
2023-10-06T02:39:09.384Z,93.67
2023-10-06T02:40:09.204Z,94.39
2023-10-06T02:41:09.214Z,94.54
2023-10-06T02:42:09.250Z,94.12
2023-10-06T02:43:09.184Z,93.67
2023-10-06T02:44:09.165Z,92.64
2023-10-06T02:45:09.151Z,91.93
2023-10-06T02:46:09.118Z,91.61
2023-10-06T02:47:09.182Z,91.31
2023-10-06T02:48:09.177Z,91.00
2023-10-06T02:49:09.438Z,90.80
2023-10-06T02:50:09.110Z,90.69
2023-10-06T02:51:09.053Z,90.48
2023-10-06T02:52:09.036Z,90.38
2023-10-06T02:53:09.092Z,90.18
2023-10-06T02:54:09.041Z,90.48
2023-10-06T02:55:08.989Z,90.38
2023-10-06T02:56:09.033Z,90.28
2023-10-06T02:57:08.965Z,90.48
2023-10-06T02:58:08.972Z,90.69
2023-10-06T02:59:09.131Z,90.69
2023-10-06T03:00:08.958Z,90.48
2023-10-06T03:01:08.969Z,90.38
2023-10-06T03:02:08.932Z,90.18
2023-10-06T03:03:08.915Z,89.97
2023-10-06T03:04:08.891Z,90.08
2023-10-06T03:05:08.892Z,90.28
2023-10-06T03:06:08.880Z,90.22
2023-10-06T03:07:08.833Z,90.01
2023-10-06T03:08:08.837Z,90.01
2023-10-06T03:09:09.043Z,90.12
2023-10-06T03:10:08.789Z,90.22
2023-10-06T03:11:08.833Z,90.42
2023-10-06T03:12:08.766Z,91.55
2023-10-06T03:13:08.750Z,91.25
2023-10-06T03:14:08.803Z,91.25
2023-10-06T03:15:08.733Z,91.14
2023-10-06T03:16:08.731Z,90.83
2023-10-06T03:17:08.763Z,90.73
2023-10-06T03:18:08.714Z,90.73
2023-10-06T03:19:09.004Z,90.42
2023-10-06T03:20:08.692Z,90.12
2023-10-06T03:21:08.682Z,90.32
2023-10-06T03:22:08.631Z,90.32
2023-10-06T03:23:08.677Z,90.32
2023-10-06T03:24:08.608Z,90.01
2023-10-06T03:25:08.588Z,90.06
2023-10-06T03:26:08.633Z,90.16
2023-10-06T03:27:08.551Z,90.06
2023-10-06T03:28:08.545Z,89.85
2023-10-06T03:29:08.745Z,89.95
2023-10-06T03:30:08.505Z,90.26
2023-10-06T03:31:08.514Z,90.36
2023-10-06T03:32:08.620Z,90.47
2023-10-06T03:33:08.503Z,90.67
2023-10-06T03:34:08.458Z,90.67
2023-10-06T03:35:08.478Z,90.88
2023-10-06T03:36:08.433Z,90.98
2023-10-06T03:37:08.444Z,90.98
2023-10-06T03:38:08.424Z,91.08
2023-10-06T03:39:08.731Z,91.19
2023-10-06T03:40:08.385Z,91.19
2023-10-06T03:41:08.429Z,91.19
2023-10-06T03:42:08.398Z,91.29
2023-10-06T03:43:08.335Z,91.08
2023-10-06T03:44:08.386Z,90.88
2023-10-06T03:45:08.328Z,90.88
2023-10-06T03:46:08.308Z,90.67
2023-10-06T03:47:08.304Z,90.88
2023-10-06T03:48:08.344Z,90.98
2023-10-06T03:49:08.515Z,91.29
2023-10-06T03:50:08.262Z,91.49
2023-10-06T03:51:08.240Z,91.60
2023-10-06T03:52:08.213Z,92.93
2023-10-06T03:53:08.244Z,92.83
2023-10-06T03:54:08.222Z,92.83
2023-10-06T03:55:08.172Z,92.63
2023-10-06T03:56:08.185Z,92.42
2023-10-06T03:57:08.145Z,92.11
2023-10-06T03:58:08.142Z,91.80
2023-10-06T03:59:08.344Z,91.80
2023-10-06T04:00:08.154Z,92.01
2023-10-06T04:01:08.107Z,92.05
2023-10-06T04:02:08.154Z,91.85
2023-10-06T04:03:10.506Z,91.74
2023-10-06T04:04:08.084Z,91.53
2023-10-06T04:05:08.120Z,91.44
2023-10-06T04:06:08.031Z,91.44
2023-10-06T04:07:08.008Z,91.23
2023-10-06T04:08:08.033Z,91.02
2023-10-06T04:09:08.185Z,90.81
2023-10-06T04:10:07.982Z,90.72
2023-10-06T04:11:08.016Z,90.61
2023-10-06T04:12:07.981Z,90.51
2023-10-06T04:13:08.039Z,90.51
2023-10-06T04:14:07.959Z,90.30
2023-10-06T04:15:07.920Z,90.41
2023-10-06T04:16:07.895Z,90.51
2023-10-06T04:17:07.920Z,90.61
2023-10-06T04:18:07.861Z,90.51
2023-10-06T04:19:08.126Z,90.51
2023-10-06T04:20:07.865Z,91.33
2023-10-06T04:21:07.822Z,91.33
2023-10-06T04:22:07.812Z,91.13
2023-10-06T04:23:07.891Z,90.92
2023-10-06T04:24:07.783Z,90.51
2023-10-06T04:25:07.778Z,90.72
2023-10-06T04:26:07.869Z,90.61
2023-10-06T04:27:07.769Z,90.51
2023-10-06T04:28:07.810Z,90.61
2023-10-06T04:29:08.098Z,90.61
2023-10-06T04:30:07.724Z,90.41
2023-10-06T04:31:07.727Z,90.41
2023-10-06T04:32:07.722Z,90.30
2023-10-06T04:33:07.731Z,90.41
2023-10-06T04:34:07.758Z,90.30
2023-10-06T04:35:07.715Z,90.20
2023-10-06T04:36:07.656Z,90.34
2023-10-06T04:37:07.634Z,90.09
2023-10-06T04:38:07.621Z,90.09
2023-10-06T04:39:07.755Z,90.24
2023-10-06T04:40:07.724Z,90.09
2023-10-06T04:41:07.563Z,90.24
2023-10-06T04:42:07.551Z,90.45
2023-10-06T04:43:07.538Z,90.55
2023-10-06T04:44:07.553Z,90.66
2023-10-06T04:45:07.503Z,90.45
2023-10-06T04:46:07.590Z,90.24
2023-10-06T04:47:07.530Z,90.24
2023-10-06T04:48:07.465Z,90.86
2023-10-06T04:49:07.687Z,91.38
2023-10-06T04:50:07.454Z,91.38
2023-10-06T04:51:07.452Z,91.27
2023-10-06T04:52:07.414Z,91.17
2023-10-06T04:53:07.495Z,91.17
2023-10-06T04:54:07.400Z,91.27
2023-10-06T04:55:07.362Z,91.38
2023-10-06T04:56:07.385Z,91.58
2023-10-06T04:57:07.403Z,91.99
2023-10-06T04:58:07.349Z,92.20
2023-10-06T04:59:08.063Z,92.10
2023-10-06T05:00:07.304Z,92.55
2023-10-06T05:01:07.285Z,92.86
2023-10-06T05:02:07.388Z,92.86
2023-10-06T05:03:07.400Z,93.16
2023-10-06T05:04:07.293Z,93.16
2023-10-06T05:05:07.320Z,93.79
2023-10-06T05:06:07.228Z,93.99
2023-10-06T05:07:07.222Z,94.71
2023-10-06T05:08:07.256Z,95.08
2023-10-06T05:09:07.336Z,94.67
2023-10-06T05:10:07.169Z,94.05
2023-10-06T05:11:08.069Z,93.95
2023-10-06T05:12:07.135Z,93.64
2023-10-06T05:13:07.146Z,93.54
2023-10-06T05:14:07.175Z,93.84
2023-10-06T05:15:07.109Z,93.74
2023-10-06T05:16:07.100Z,93.48
2023-10-06T05:17:07.088Z,93.37
2023-10-06T05:18:07.101Z,93.27
2023-10-06T05:19:07.223Z,93.12
2023-10-06T05:20:07.105Z,93.64
2023-10-06T05:21:07.035Z,94.09
2023-10-06T05:22:07.013Z,94.09
2023-10-06T05:23:07.065Z,93.79
2023-10-06T05:24:06.985Z,93.58
2023-10-06T05:25:06.998Z,93.33
2023-10-06T05:26:06.995Z,93.27
2023-10-06T05:27:07.055Z,93.27
2023-10-06T05:28:06.930Z,93.27
2023-10-06T05:29:07.052Z,93.16
2023-10-06T05:30:06.941Z,93.06
2023-10-06T05:31:06.882Z,92.96
2023-10-06T05:32:06.989Z,92.92
2023-10-06T05:33:06.986Z,92.92
2023-10-06T05:34:06.846Z,92.71
2023-10-06T05:35:06.845Z,92.61
2023-10-06T05:36:06.838Z,92.76
2023-10-06T05:37:06.825Z,92.86
2023-10-06T05:38:06.811Z,92.92
2023-10-06T05:39:06.946Z,92.71
2023-10-06T05:40:06.792Z,92.86
2023-10-06T05:41:06.800Z,93.27
2023-10-06T05:42:06.768Z,93.48
2023-10-06T05:43:06.712Z,93.33
2023-10-06T05:44:06.827Z,93.33
2023-10-06T05:45:06.819Z,93.43
2023-10-06T05:46:06.718Z,93.43
2023-10-06T05:47:06.752Z,93.95
2023-10-06T05:48:06.762Z,93.95
2023-10-06T05:49:06.733Z,93.74
2023-10-06T05:50:06.670Z,93.95
2023-10-06T05:51:06.950Z,94.46
2023-10-06T05:52:06.640Z,94.36
2023-10-06T05:53:06.652Z,94.05
2023-10-06T05:54:06.585Z,93.95
2023-10-06T05:55:06.592Z,94.26
2023-10-06T05:56:06.607Z,94.56
2023-10-06T05:57:06.545Z,94.26
2023-10-06T05:58:06.546Z,94.15
2023-10-06T05:59:06.713Z,94.05
2023-10-06T06:00:06.485Z,94.05
2023-10-06T06:01:06.524Z,94.15
2023-10-06T06:02:06.483Z,94.15
2023-10-06T06:03:06.462Z,94.26
2023-10-06T06:04:06.490Z,94.26
2023-10-06T06:05:06.484Z,94.15
2023-10-06T06:06:06.428Z,94.15
2023-10-06T06:07:06.413Z,94.01
2023-10-06T06:08:06.439Z,94.01
2023-10-06T06:09:06.481Z,94.01
2023-10-06T06:10:06.372Z,94.01
2023-10-06T06:11:06.412Z,94.11
2023-10-06T06:12:06.357Z,94.21
2023-10-06T06:13:06.330Z,94.62
2023-10-06T06:14:16.845Z,94.73
2023-10-06T06:15:06.328Z,94.93
2023-10-06T06:16:06.432Z,94.89
2023-10-06T06:17:06.291Z,94.89
2023-10-06T06:18:06.378Z,94.89
2023-10-06T06:19:06.281Z,94.89
2023-10-06T06:20:17.877Z,94.78
2023-10-06T06:21:06.268Z,94.78
2023-10-06T06:22:06.236Z,94.99
2023-10-06T06:23:06.299Z,94.89
2023-10-06T06:24:06.222Z,94.78
2023-10-06T06:25:06.173Z,94.89
2023-10-06T06:26:06.190Z,95.20
2023-10-06T06:27:06.164Z,95.30
2023-10-06T06:28:06.127Z,95.40
2023-10-06T06:29:06.145Z,95.61
2023-10-06T06:30:06.109Z,95.56
2023-10-06T06:31:06.531Z,95.67
2023-10-06T06:32:06.109Z,96.39
2023-10-06T06:33:06.204Z,96.59
2023-10-06T06:34:06.030Z,96.69
2023-10-06T06:35:06.050Z,96.69
2023-10-06T06:36:06.020Z,96.59
2023-10-06T06:37:05.993Z,96.55
2023-10-06T06:38:06.191Z,96.65
2023-10-06T06:39:06.001Z,96.55
2023-10-06T06:40:05.963Z,96.44
2023-10-06T06:41:05.976Z,96.44
2023-10-06T06:42:05.945Z,96.81
2023-10-06T06:43:05.918Z,96.70
2023-10-06T06:44:05.950Z,96.60
2023-10-06T06:45:05.930Z,96.60
2023-10-06T06:46:05.930Z,96.70
2023-10-06T06:47:05.870Z,96.66
2023-10-06T06:48:05.868Z,96.66
2023-10-06T06:49:05.843Z,96.66
2023-10-06T06:50:05.903Z,96.56
2023-10-06T06:51:05.813Z,96.45
2023-10-06T06:52:05.821Z,96.20
2023-10-06T06:53:05.857Z,96.00
2023-10-06T06:54:05.765Z,95.90
2023-10-06T06:55:05.758Z,96.00
2023-10-06T06:56:05.811Z,96.31
2023-10-06T06:57:05.751Z,96.41
2023-10-06T06:58:05.712Z,96.67
2023-10-06T06:59:05.769Z,96.98
2023-10-06T07:00:05.722Z,97.19
2023-10-06T07:01:05.698Z,96.88
2023-10-06T07:02:05.730Z,96.53
2023-10-06T07:03:05.667Z,96.83
2023-10-06T07:04:05.617Z,96.83
2023-10-06T07:05:05.650Z,97.04
2023-10-06T07:06:05.622Z,96.69
2023-10-06T07:07:05.602Z,96.17
2023-10-06T07:08:05.637Z,95.87
2023-10-06T07:09:05.572Z,95.56
2023-10-06T07:10:05.542Z,95.36
2023-10-06T07:11:05.547Z,95.46
2023-10-06T07:12:05.525Z,95.10
2023-10-06T07:13:05.540Z,94.80
2023-10-06T07:14:05.561Z,94.80
2023-10-06T07:15:05.994Z,95.00
2023-10-06T07:16:05.469Z,95.00
2023-10-06T07:17:05.552Z,94.75
2023-10-06T07:18:05.505Z,94.45
2023-10-06T07:19:05.460Z,94.45
2023-10-06T07:20:05.534Z,94.14
2023-10-06T07:21:05.404Z,94.10
2023-10-06T07:22:05.373Z,94.10
2023-10-06T07:23:05.398Z,94.10
2023-10-06T07:24:05.365Z,93.89
2023-10-06T07:25:05.368Z,94.10
2023-10-06T07:26:05.377Z,94.26
2023-10-06T07:27:05.337Z,94.26
2023-10-06T07:28:05.308Z,93.95
2023-10-06T07:29:05.313Z,94.11
2023-10-06T07:30:05.288Z,94.01
2023-10-06T07:31:05.313Z,93.70
2023-10-06T07:32:05.332Z,94.07
2023-10-06T07:33:05.275Z,93.55
2023-10-06T07:34:05.227Z,93.45
2023-10-06T07:35:05.235Z,94.02
2023-10-06T07:36:05.201Z,93.92
2023-10-06T07:37:05.231Z,93.82
2023-10-06T07:38:05.272Z,92.86
2023-10-06T07:39:05.145Z,92.96
2023-10-06T07:40:05.132Z,93.57
2023-10-06T07:41:05.187Z,93.22
2023-10-06T07:42:05.146Z,92.41
2023-10-06T07:43:05.227Z,92.41
2023-10-06T07:44:05.203Z,92.61
2023-10-06T07:45:05.086Z,92.10
2023-10-06T07:46:05.100Z,92.16
2023-10-06T07:47:05.093Z,92.67
2023-10-06T07:48:05.061Z,92.05
2023-10-06T07:49:05.021Z,91.20
2023-10-06T07:50:05.003Z,90.69
2023-10-06T07:51:05.031Z,91.20
2023-10-06T07:52:04.994Z,90.79
2023-10-06T07:53:05.041Z,91.56
2023-10-06T07:54:05.704Z,90.55
2023-10-06T07:55:04.935Z,89.63
2023-10-06T07:56:04.959Z,89.94
2023-10-06T07:57:04.922Z,89.89
2023-10-06T07:58:04.973Z,89.18
2023-10-06T07:59:04.917Z,90.50
2023-10-06T08:00:04.906Z,89.75
2023-10-06T08:01:04.901Z,89.24
2023-10-06T08:02:04.866Z,88.79
2023-10-06T08:03:04.869Z,88.89
2023-10-06T08:04:04.874Z,88.28
2023-10-06T08:05:04.894Z,88.85
2023-10-06T08:06:04.796Z,87.32
2023-10-06T08:07:04.778Z,87.73
2023-10-06T08:08:04.788Z,87.89
2023-10-06T08:09:04.745Z,86.07
2023-10-06T08:10:04.773Z,86.68
2023-10-06T08:11:04.863Z,85.55
2023-10-06T08:12:04.701Z,86.22
2023-10-06T08:13:04.688Z,85.62
2023-10-06T08:14:04.707Z,85.07
2023-10-06T08:15:04.666Z,85.17
2023-10-06T08:16:04.722Z,85.38
2023-10-06T08:17:04.670Z,83.91
2023-10-06T08:18:04.641Z,84.63
2023-10-06T08:19:04.602Z,84.32
2023-10-06T08:20:04.606Z,84.38
2023-10-06T08:21:04.709Z,83.77
2023-10-06T08:22:04.926Z,83.77
2023-10-06T08:23:04.567Z,84.24
2023-10-06T08:24:04.551Z,83.03
2023-10-06T08:25:04.522Z,82.42
2023-10-06T08:26:04.541Z,82.48
2023-10-06T08:27:04.522Z,82.38
2023-10-06T08:28:04.522Z,80.96
2023-10-06T08:29:04.584Z,80.65
2023-10-06T08:30:04.461Z,80.01
2023-10-06T08:31:05.147Z,81.32
2023-10-06T08:32:04.496Z,79.71
2023-10-06T08:33:04.525Z,80.78
2023-10-06T08:34:04.497Z,79.36
2023-10-06T08:35:04.431Z,78.82
2023-10-06T08:36:04.361Z,78.92
2023-10-06T08:37:04.381Z,78.08
2023-10-06T08:38:04.388Z,75.95
2023-10-06T08:39:04.349Z,75.34
2023-10-06T08:40:04.328Z,75.71
2023-10-06T08:41:04.593Z,76.93
2023-10-06T08:42:04.295Z,75.81
2023-10-06T08:43:04.276Z,75.31
2023-10-06T08:44:04.342Z,74.26
2023-10-06T08:45:04.340Z,73.96
2023-10-06T08:46:04.334Z,75.74
2023-10-06T08:47:16.306Z,74.84
2023-10-06T08:48:05.369Z,74.93
2023-10-06T08:49:04.295Z,74.22
2023-10-06T08:50:04.231Z,75.00
2023-10-06T08:51:04.203Z,74.49
2023-10-06T08:52:04.190Z,73.65
2023-10-06T08:53:04.153Z,72.34
2023-10-06T08:54:04.154Z,72.34
2023-10-06T08:55:04.133Z,73.52
2023-10-06T08:56:04.119Z,72.00
2023-10-06T08:57:04.077Z,72.81
2023-10-06T08:58:05.119Z,72.67
2023-10-06T08:59:04.308Z,72.67
2023-10-06T09:00:04.159Z,70.56
2023-10-06T09:01:04.105Z,72.07
2023-10-06T09:02:04.046Z,72.94
2023-10-06T09:03:04.072Z,70.73
2023-10-06T09:04:04.067Z,70.42
2023-10-06T09:05:04.017Z,70.59
2023-10-06T09:06:03.983Z,70.29
2023-10-06T09:07:03.977Z,69.35
2023-10-06T09:08:03.978Z,68.55
2023-10-06T09:09:03.928Z,68.62
2023-10-06T09:10:03.919Z,68.51
2023-10-06T09:11:03.936Z,68.11
2023-10-06T09:12:03.899Z,68.41
2023-10-06T09:13:03.876Z,67.68
2023-10-06T09:14:03.868Z,67.88
2023-10-06T09:15:03.834Z,66.87
2023-10-06T09:16:04.366Z,66.54
2023-10-06T09:17:03.877Z,66.44
2023-10-06T09:18:03.861Z,66.34
2023-10-06T09:19:03.811Z,65.70
2023-10-06T09:20:10.577Z,65.70
2023-10-06T09:21:03.768Z,66.20
2023-10-06T09:22:03.784Z,64.57
2023-10-06T09:23:03.793Z,65.97
